Time;durP1;ratioP1;P1;durP2;ratioP2;P2;SDS_P1;SDS_P2;PMS_P1;PMS_P2;Temp;Humidity;BMP_temperature;BMP_pressure;BME280_temperature;BME280_humidity;BME280_pressure;Samples;Min_cycle;Max_cycle;Signal;HPM_P1;HPM_P2
2023/08/21 00:00:13;;;;;;;;;;;;;;;22.44;66.91;95489.53;5114087;28;996;-55
2023/08/21 00:02:39;;;;;;;;;;;;;;;22.34;67.08;95485.44;5113732;28;1075;-56
2023/08/21 00:05:06;;;;;;;;;;;;;;;22.24;67.10;95487.81;5113758;28;1003;-56
2023/08/21 00:07:32;;;;;;;;;;;;;;;22.28;66.95;95491.78;5113970;28;974;-55
2023/08/21 00:09:58;;;;;;;;;;;;;;;22.54;66.57;95476.22;5113913;28;1031;-56
2023/08/21 00:12:24;;;;;;;;;;;;;;;22.42;66.82;95500.63;5131158;28;2603;-56
2023/08/21 00:14:50;;;;;;;;;;;;;;;22.22;67.80;95500.84;5134461;28;1989;-56
2023/08/21 00:17:16;;;;;;;;;;;;;;;22.31;66.80;95496.78;5134205;28;1059;-55
2023/08/21 00:19:42;;;;;;;;;;;;;;;22.39;67.22;95499.22;5134295;28;1180;-56
2023/08/21 00:22:08;;;;;;;;;;;;;;;22.27;66.93;95503.75;5132938;28;2497;-55
2023/08/21 00:24:34;;;;;;;;;;;;;;;22.25;67.74;95494.94;5134238;28;1043;-56
2023/08/21 00:26:59;;;;;;;;;;;;;;;22.33;67.29;95500.13;5134400;28;1015;-55
2023/08/21 00:29:25;;;;;;;;;;;;;;;22.14;68.20;95501.09;5134041;28;1090;-56
2023/08/21 00:31:51;;;;;;;;;;;;;;;21.89;70.23;95490.25;5134370;28;1082;-56
2023/08/21 00:34:17;;;;;;;;;;;;;;;21.92;69.76;95492.53;5133954;28;1094;-56
2023/08/21 00:36:44;;;;;;;;;;;;;;;22.02;68.90;95488.25;5134243;28;1897;-56
2023/08/21 00:39:10;;;;;;;;;;;;;;;21.97;69.14;95490.00;5134006;28;1971;-55
2023/08/21 00:41:35;;;;;;;;;;;;;;;22.13;67.85;95494.84;5133962;28;1020;-55
2023/08/21 00:44:02;;;;;;;;;;;;;;;22.28;68.16;95490.97;5134122;27;2453;-56
2023/08/21 00:46:28;;;;;;;;;;;;;;;22.28;68.25;95493.69;5137764;27;1104;-56
2023/08/21 00:48:53;;;;;;;;;;;;;;;22.19;68.29;95487.66;5137920;27;1260;-56
2023/08/21 00:51:20;;;;;;;;;;;;;;;21.99;69.68;95480.53;5138147;27;1048;-56
2023/08/21 00:53:46;;;;;;;;;;;;;;;21.96;69.94;95482.88;5137356;27;2474;-55
2023/08/21 00:56:12;;;;;;;;;;;;;;;21.81;70.61;95485.94;5137191;27;2930;-56
2023/08/21 00:58:39;;;;;;;;;;;;;;;21.82;70.49;95493.06;5137738;27;1039;-55
2023/08/21 01:01:05;;;;;;;;;;;;;;;21.81;71.09;95496.81;5137603;27;1098;-56
2023/08/21 01:03:31;;;;;;;;;;;;;;;21.76;72.16;95496.66;5137449;27;1988;-55
2023/08/21 01:05:57;;;;;;;;;;;;;;;21.61;72.62;95492.41;5136592;27;2590;-56
2023/08/21 01:08:28;;;;;;;;;;;;;;;21.60;71.13;95493.44;5119399;27;1250;-56
2023/08/21 01:10:57;;;;;;;;;;;;;;;21.68;69.77;95486.06;5137569;27;1149;-56
2023/08/21 01:13:55;;;;;;;;;;;;;;;21.71;70.89;95491.06;5137523;27;1045;-56
2023/08/21 01:16:21;;;;;;;;;;;;;;;21.67;70.42;95493.41;5137473;27;1914;-55
2023/08/21 01:18:48;;;;;;;;;;;;;;;21.64;71.59;95488.38;5137278;27;1877;-56
2023/08/21 01:21:15;;;;;;;;;;;;;;;21.62;71.34;95485.88;5137056;27;1224;-56
2023/08/21 01:23:44;;;;;;;;;;;;;;;21.71;71.21;95488.34;5136945;27;2256;-56
2023/08/21 01:26:10;;;;;;;;;;;;;;;21.50;72.60;95495.00;5117157;27;3044;-55
2023/08/21 01:28:36;;;;;;;;;;;;;;;21.35;73.66;95501.56;5116750;28;981;-55
2023/08/21 01:31:11;;;;;;;;;;;;;;;21.03;75.19;95501.53;5116704;28;961;-56
2023/08/21 01:33:42;;;;;;;;;;;;;;;20.99;73.87;95503.03;5116758;28;1047;-56
2023/08/21 01:36:08;;;;;;;;;;;;;;;21.17;73.38;95506.88;5116433;28;1921;-56
2023/08/21 01:38:35;;;;;;;;;;;;;;;21.01;74.53;95509.06;5116240;28;905;-55
2023/08/21 01:41:02;;;;;;;;;;;;;;;21.09;73.39;95507.16;5136043;27;1491;-56
2023/08/21 01:43:28;;;;;;;;;;;;;;;21.21;73.17;95508.97;5136932;27;969;-56
2023/08/21 01:45:54;;;;;;;;;;;;;;;21.29;72.92;95509.78;5136706;27;1080;-56
2023/08/21 01:48:20;;;;;;;;;;;;;;;21.24;72.54;95508.50;5136603;27;1043;-56
2023/08/21 01:50:46;;;;;;;;;;;;;;;21.25;73.29;95512.09;5136612;27;1024;-55
2023/08/21 01:53:12;;;;;;;;;;;;;;;21.05;73.83;95515.75;5136628;27;1037;-55
2023/08/21 01:55:38;;;;;;;;;;;;;;;20.92;75.35;95515.00;5135980;27;1996;-55
2023/08/21 01:58:04;;;;;;;;;;;;;;;20.74;75.99;95510.28;5135631;27;2921;-55
2023/08/21 02:00:30;;;;;;;;;;;;;;;20.58;77.44;95517.84;5136696;27;969;-55
2023/08/21 02:02:56;;;;;;;;;;;;;;;20.46;77.77;95512.22;5136613;27;1039;-56
2023/08/21 02:05:22;;;;;;;;;;;;;;;20.60;77.90;95512.19;5136581;27;965;-55
2023/08/21 02:07:48;;;;;;;;;;;;;;;20.39;78.94;95526.88;5136324;27;1032;-54
2023/08/21 02:10:14;;;;;;;;;;;;;;;20.44;77.81;95524.34;5136179;27;1028;-56
2023/08/21 02:12:40;;;;;;;;;;;;;;;20.32;79.10;95521.47;5135348;27;2478;-56
2023/08/21 02:15:06;;;;;;;;;;;;;;;20.17;79.85;95534.44;5136044;27;1913;-56
2023/08/21 02:17:32;;;;;;;;;;;;;;;20.07;79.67;95529.44;5136217;27;1052;-56
2023/08/21 02:19:58;;;;;;;;;;;;;;;20.28;79.36;95526.47;5135001;27;2600;-55
2023/08/21 02:22:24;;;;;;;;;;;;;;;20.07;79.74;95526.72;5136257;27;1010;-55
2023/08/21 02:24:50;;;;;;;;;;;;;;;20.17;79.44;95521.69;5136233;27;972;-56
2023/08/21 02:27:16;;;;;;;;;;;;;;;19.99;79.86;95519.63;5136066;27;1012;-56
2023/08/21 02:29:41;;;;;;;;;;;;;;;20.06;79.54;95515.03;5135858;27;1048;-56
2023/08/21 02:32:07;;;;;;;;;;;;;;;19.81;80.18;95516.75;5135990;27;1047;-56
2023/08/21 02:34:33;;;;;;;;;;;;;;;19.84;80.39;95513.59;5135841;27;1038;-56
2023/08/21 02:36:59;;;;;;;;;;;;;;;19.75;80.60;95514.84;5135783;27;1905;-56
2023/08/21 02:39:25;;;;;;;;;;;;;;;19.92;80.16;95509.84;5119230;27;3030;-56
2023/08/21 02:41:51;;;;;;;;;;;;;;;19.85;80.90;95507.13;5115095;28;1003;-55
2023/08/21 02:44:17;;;;;;;;;;;;;;;19.75;80.99;95514.84;5115274;28;1205;-56
2023/08/21 02:46:43;;;;;;;;;;;;;;;19.64;81.98;95506.28;5114874;28;1267;-56
2023/08/21 02:49:09;;;;;;;;;;;;;;;19.61;81.80;95511.28;5132186;27;2898;-56
2023/08/21 02:51:35;;;;;;;;;;;;;;;19.58;81.81;95511.69;5135691;27;1202;-56
2023/08/21 02:54:01;;;;;;;;;;;;;;;19.64;81.73;95513.59;5135492;27;1034;-56
2023/08/21 02:56:27;;;;;;;;;;;;;;;19.52;82.45;95516.09;5134242;27;2877;-56
2023/08/21 02:58:53;;;;;;;;;;;;;;;19.61;82.25;95506.69;5135256;27;1036;-56
2023/08/21 03:01:19;;;;;;;;;;;;;;;19.77;81.36;95508.19;5135399;27;1056;-56
2023/08/21 03:03:45;;;;;;;;;;;;;;;19.79;80.72;95505.28;5135476;27;1128;-56
2023/08/21 03:06:11;;;;;;;;;;;;;;;19.39;82.09;95506.06;5134488;27;948;-56
2023/08/21 03:08:37;;;;;;;;;;;;;;;19.23;82.66;95498.34;5135124;27;1087;-56
2023/08/21 03:11:03;;;;;;;;;;;;;;;19.15;83.44;95504.78;5135348;27;1007;-56
2023/08/21 03:13:29;;;;;;;;;;;;;;;19.20;83.32;95502.31;5135187;27;1052;-56
2023/08/21 03:15:55;;;;;;;;;;;;;;;19.26;82.50;95503.34;5133917;27;2833;-57
2023/08/21 03:18:21;;;;;;;;;;;;;;;19.08;82.95;95514.78;5135025;27;987;-57
2023/08/21 03:20:47;;;;;;;;;;;;;;;18.90;84.09;95518.91;5116855;27;1165;-57
2023/08/21 03:23:14;;;;;;;;;;;;;;;19.09;83.80;95511.03;5135123;27;989;-57
2023/08/21 03:25:40;;;;;;;;;;;;;;;19.39;82.76;95516.06;5134743;27;1032;-57
2023/08/21 03:28:06;;;;;;;;;;;;;;;19.35;82.60;95510.25;5133909;27;2968;-56
2023/08/21 03:30:32;;;;;;;;;;;;;;;19.35;82.62;95507.53;5134980;27;1007;-57
2023/08/21 03:32:58;;;;;;;;;;;;;;;19.01;83.65;95513.91;5134960;27;1317;-56
2023/08/21 03:35:24;;;;;;;;;;;;;;;18.96;83.86;95516.44;5134829;27;1905;-58
2023/08/21 03:37:50;;;;;;;;;;;;;;;18.70;84.86;95526.09;5134957;27;972;-56
2023/08/21 03:40:16;;;;;;;;;;;;;;;18.91;83.92;95523.28;5134812;27;1027;-57
2023/08/21 03:42:43;;;;;;;;;;;;;;;18.66;85.30;95527.53;5134864;27;1027;-56
2023/08/21 03:45:09;;;;;;;;;;;;;;;18.81;84.56;95530.13;5134600;27;1036;-58
2023/08/21 03:47:35;;;;;;;;;;;;;;;19.01;83.63;95535.59;5134853;27;1364;-57
2023/08/21 03:50:01;;;;;;;;;;;;;;;18.94;83.98;95534.75;5134195;27;2965;-58
2023/08/21 03:52:27;;;;;;;;;;;;;;;18.86;84.49;95539.31;5133858;27;2775;-58
2023/08/21 03:54:53;;;;;;;;;;;;;;;19.09;83.65;95535.44;5134389;27;1906;-58
2023/08/21 03:57:19;;;;;;;;;;;;;;;18.82;84.47;95543.47;5134664;27;1006;-57
2023/08/21 03:59:45;;;;;;;;;;;;;;;18.63;85.08;95539.63;5134620;28;1003;-56
2023/08/21 04:02:10;;;;;;;;;;;;;;;18.72;85.58;95548.38;5134421;28;942;-57
2023/08/21 04:04:37;;;;;;;;;;;;;;;18.84;84.48;95548.69;5134650;28;1059;-57
2023/08/21 04:07:03;;;;;;;;;;;;;;;18.90;84.35;95550.59;5134365;28;1063;-57
2023/08/21 04:09:29;;;;;;;;;;;;;;;18.83;84.64;95547.00;5134271;28;1052;-56
2023/08/21 04:11:55;;;;;;;;;;;;;;;19.03;83.43;95549.81;5134794;28;1201;-57
2023/08/21 04:14:21;;;;;;;;;;;;;;;19.26;83.06;95547.56;5115969;28;1106;-56
2023/08/21 04:16:47;;;;;;;;;;;;;;;19.04;84.22;95556.88;5134514;28;1992;-55
2023/08/21 04:19:13;;;;;;;;;;;;;;;18.97;84.34;95561.44;5137470;27;1622;-56
2023/08/21 04:21:39;;;;;;;;;;;;;;;19.27;82.49;95561.94;5138414;27;1048;-56
2023/08/21 04:24:05;;;;;;;;;;;;;;;19.31;83.43;95558.63;5138628;27;1010;-56
2023/08/21 04:26:31;;;;;;;;;;;;;;;19.41;82.93;95554.69;5138149;27;1857;-56
2023/08/21 04:28:57;;;;;;;;;;;;;;;19.33;83.16;95563.00;5138159;27;933;-56
2023/08/21 04:31:23;;;;;;;;;;;;;;;19.45;83.07;95566.78;5138149;27;1619;-56
2023/08/21 04:33:49;;;;;;;;;;;;;;;19.70;81.85;95562.41;5138170;27;1012;-56
2023/08/21 04:36:16;;;;;;;;;;;;;;;20.13;79.95;95563.03;5136951;27;2861;-56
2023/08/21 04:38:42;;;;;;;;;;;;;;;20.73;78.39;95562.94;5120175;27;1301;-56
2023/08/21 04:41:09;;;;;;;;;;;;;;;21.12;76.39;95571.97;5137984;27;956;-56
2023/08/21 04:43:35;;;;;;;;;;;;;;;21.26;75.01;95568.94;5137906;27;1044;-56
2023/08/21 04:46:01;;;;;;;;;;;;;;;21.51;73.43;95565.50;5137920;27;1361;-57
2023/08/21 04:48:27;;;;;;;;;;;;;;;21.91;71.76;95567.94;5137755;27;1137;-57
2023/08/21 04:50:53;;;;;;;;;;;;;;;21.94;72.66;95572.91;5137761;27;1173;-56
2023/08/21 04:53:19;;;;;;;;;;;;;;;21.63;74.85;95577.34;5137708;27;1007;-56
2023/08/21 04:55:45;;;;;;;;;;;;;;;21.42;75.98;95575.78;5137646;27;1915;-56
2023/08/21 04:58:11;;;;;;;;;;;;;;;21.35;77.14;95577.69;5104021;28;1486;-55
2023/08/21 05:00:37;;;;;;;;;;;;;;;21.43;76.81;95576.59;5098948;28;1015;-56
2023/08/21 05:03:03;;;;;;;;;;;;;;;21.43;77.21;95582.88;5116259;28;1040;-56
2023/08/21 05:05:29;;;;;;;;;;;;;;;21.47;77.22;95580.59;5098773;28;1103;-56
2023/08/21 05:07:55;;;;;;;;;;;;;;;21.44;75.21;95587.31;5117190;28;968;-55
2023/08/21 05:10:21;;;;;;;;;;;;;;;21.64;74.64;95580.91;5116612;28;1037;-56
2023/08/21 05:12:48;;;;;;;;;;;;;;;21.89;74.75;95583.63;5117063;28;1151;-56
2023/08/21 05:15:14;;;;;;;;;;;;;;;21.89;73.63;95582.81;5116526;28;1918;-56
2023/08/21 05:17:40;;;;;;;;;;;;;;;21.93;76.09;95576.72;5116690;28;1028;-56
2023/08/21 05:20:06;;;;;;;;;;;;;;;22.16;71.45;95584.25;5125585;27;1177;-56
2023/08/21 05:22:32;;;;;;;;;;;;;;;22.30;69.04;95593.16;5137035;27;1024;-56
2023/08/21 05:24:58;;;;;;;;;;;;;;;22.51;68.34;95594.63;5118793;27;1044;-56
2023/08/21 05:27:25;;;;;;;;;;;;;;;22.72;67.86;95593.38;5137154;27;1007;-56
2023/08/21 05:29:51;;;;;;;;;;;;;;;22.84;69.62;95601.66;5136025;27;1032;-56
2023/08/21 05:32:17;;;;;;;;;;;;;;;22.87;68.07;95598.44;5136766;27;1040;-56
2023/08/21 05:34:43;;;;;;;;;;;;;;;23.09;66.67;95598.84;5137155;27;1047;-56
2023/08/21 05:37:09;;;;;;;;;;;;;;;23.25;65.84;95599.28;5137085;27;1976;-56
2023/08/21 05:39:35;;;;;;;;;;;;;;;23.41;64.97;95603.25;5136892;27;932;-56
2023/08/21 05:42:01;;;;;;;;;;;;;;;23.51;63.94;95598.09;5136674;27;1083;-55
2023/08/21 05:44:27;;;;;;;;;;;;;;;23.61;64.55;95601.09;5136379;27;1250;-57
2023/08/21 05:46:53;;;;;;;;;;;;;;;23.78;65.03;95598.53;5136962;27;1027;-56
2023/08/21 05:49:19;;;;;;;;;;;;;;;23.83;63.08;95595.97;5136497;27;1035;-56
2023/08/21 05:51:45;;;;;;;;;;;;;;;23.86;63.39;95600.97;5136605;27;960;-56
2023/08/21 05:54:11;;;;;;;;;;;;;;;23.91;62.65;95592.09;5136645;27;1043;-56
2023/08/21 05:56:37;;;;;;;;;;;;;;;23.99;62.71;95591.72;5136343;27;1981;-56
2023/08/21 05:59:03;;;;;;;;;;;;;;;23.93;65.82;95595.41;5136809;27;1020;-56
2023/08/21 06:01:29;;;;;;;;;;;;;;;24.00;65.63;95598.03;5136605;27;1059;-56
2023/08/21 06:03:57;;;;;;;;;;;;;;;24.07;63.18;95599.56;5136420;27;991;-56
2023/08/21 06:06:23;;;;;;;;;;;;;;;24.28;64.00;95594.63;5136165;27;1098;-55
2023/08/21 06:08:49;;;;;;;;;;;;;;;24.49;61.33;95594.06;5136596;27;977;-56
2023/08/21 06:11:15;;;;;;;;;;;;;;;24.42;63.91;95593.31;5136434;27;999;-56
2023/08/21 06:13:41;;;;;;;;;;;;;;;24.79;62.63;95595.00;5124799;27;1153;-59
2023/08/21 06:16:07;;;;;;;;;;;;;;;24.88;64.11;95599.03;5124291;27;1921;-57
2023/08/21 06:18:33;;;;;;;;;;;;;;;25.08;62.16;95598.63;5136329;27;1014;-57
2023/08/21 06:20:59;;;;;;;;;;;;;;;25.23;61.33;95590.78;5119435;27;1528;-57
2023/08/21 06:23:25;;;;;;;;;;;;;;;25.44;60.17;95593.91;5115332;28;1091;-57
2023/08/21 06:25:51;;;;;;;;;;;;;;;25.59;59.73;95596.97;5115385;28;1854;-57
2023/08/21 06:28:17;;;;;;;;;;;;;;;25.55;62.65;95590.28;5124325;27;2946;-57
2023/08/21 06:30:43;;;;;;;;;;;;;;;25.47;61.55;95591.50;5136045;27;1057;-57
2023/08/21 06:33:09;;;;;;;;;;;;;;;25.51;61.83;95589.13;5135961;27;973;-57
2023/08/21 06:35:36;;;;;;;;;;;;;;;25.55;60.77;95584.81;5135681;27;1897;-56
2023/08/21 06:38:02;;;;;;;;;;;;;;;25.49;58.27;95591.28;5135652;27;2025;-56
2023/08/21 06:40:28;;;;;;;;;;;;;;;25.73;61.06;95586.53;5132367;27;2831;-56
2023/08/21 06:42:54;;;;;;;;;;;;;;;25.97;58.55;95589.16;5120797;27;2847;-56
2023/08/21 06:45:20;;;;;;;;;;;;;;;26.10;59.90;95591.56;5134448;27;2950;-57
2023/08/21 06:47:47;;;;;;;;;;;;;;;26.19;61.22;95583.78;5135511;27;981;-57
2023/08/21 06:50:13;;;;;;;;;;;;;;;26.39;60.26;95578.63;5135683;27;981;-56
2023/08/21 06:52:39;;;;;;;;;;;;;;;26.74;60.58;95582.19;5135402;27;976;-55
2023/08/21 06:55:05;;;;;;;;;;;;;;;26.78;59.73;95588.81;5135349;27;1886;-56
2023/08/21 06:57:31;;;;;;;;;;;;;;;26.81;57.10;95585.59;5135255;27;1008;-56
2023/08/21 06:59:57;;;;;;;;;;;;;;;27.02;58.29;95590.25;5135572;27;1040;-56
2023/08/21 07:02:23;;;;;;;;;;;;;;;27.01;59.01;95595.97;5135461;27;1239;-56
2023/08/21 07:04:49;;;;;;;;;;;;;;;27.03;58.29;95591.06;5135143;27;1067;-56
2023/08/21 07:07:15;;;;;;;;;;;;;;;27.07;59.82;95594.97;5135017;27;1093;-56
2023/08/21 07:09:41;;;;;;;;;;;;;;;27.26;60.04;95593.63;5135003;27;1127;-56
2023/08/21 07:12:07;;;;;;;;;;;;;;;27.37;59.07;95593.72;5135071;27;1052;-56
2023/08/21 07:14:33;;;;;;;;;;;;;;;27.41;60.76;95590.22;5135060;27;988;-56
2023/08/21 07:16:59;;;;;;;;;;;;;;;27.54;58.72;95588.16;5135029;27;1999;-56
2023/08/21 07:19:25;;;;;;;;;;;;;;;27.88;57.43;95586.03;5113682;28;1173;-56
2023/08/21 07:21:51;;;;;;;;;;;;;;;28.14;59.53;95589.06;5114573;28;960;-56
2023/08/21 07:24:17;;;;;;;;;;;;;;;28.33;58.69;95592.25;5114244;28;1975;-56
2023/08/21 07:26:43;;;;;;;;;;;;;;;28.32;56.30;95583.13;5114144;28;1064;-56
2023/08/21 07:29:09;;;;;;;;;;;;;;;28.50;57.21;95584.66;5096466;28;1041;-56
2023/08/21 07:31:35;;;;;;;;;;;;;;;28.79;56.17;95581.59;5114100;28;1647;-56
2023/08/21 07:34:01;;;;;;;;;;;;;;;29.03;54.06;95582.00;5114230;28;968;-56
2023/08/21 07:36:27;;;;;;;;;;;;;;;29.15;55.46;95592.81;5113935;28;1992;-56
2023/08/21 07:38:53;;;;;;;;;;;;;;;29.29;56.39;95593.16;5114336;28;1064;-56
2023/08/21 07:41:19;;;;;;;;;;;;;;;29.48;56.33;95593.50;5114175;28;1043;-56
2023/08/21 07:43:45;;;;;;;;;;;;;;;29.49;55.21;95584.16;5114195;28;1033;-56
2023/08/21 07:46:15;;;;;;;;;;;;;;;29.53;54.45;95593.53;5113821;28;1092;-57
2023/08/21 07:48:42;;;;;;;;;;;;;;;29.78;52.83;95590.03;5121107;27;1284;-55
2023/08/21 07:51:08;;;;;;;;;;;;;;;29.88;50.66;95592.81;5125616;27;1225;-56
2023/08/21 07:53:34;;;;;;;;;;;;;;;29.95;50.78;95590.59;5118980;27;1232;-56
2023/08/21 07:56:01;;;;;;;;;;;;;;;30.11;52.21;95585.13;5114132;28;1917;-56
2023/08/21 07:58:27;;;;;;;;;;;;;;;30.23;51.02;95582.94;5114133;28;1083;-56
2023/08/21 08:00:53;;;;;;;;;;;;;;;30.35;48.23;95582.69;5114069;28;1017;-56
2023/08/21 08:03:19;;;;;;;;;;;;;;;30.38;46.46;95579.38;5113819;28;981;-56
2023/08/21 08:05:45;;;;;;;;;;;;;;;30.38;46.15;95579.38;5113688;28;1032;-55
2023/08/21 08:08:11;;;;;;;;;;;;;;;30.38;45.93;95573.84;5113895;28;1117;-56
2023/08/21 08:10:38;;;;;;;;;;;;;;;30.60;46.41;95570.81;5113694;28;1059;-56
2023/08/21 08:13:05;;;;;;;;;;;;;;;30.80;46.83;95574.63;5113912;28;987;-56
2023/08/21 08:15:31;;;;;;;;;;;;;;;30.85;44.64;95574.63;5113503;28;1992;-56
2023/08/21 08:17:57;;;;;;;;;;;;;;;30.76;44.30;95568.84;5113675;28;1110;-56
2023/08/21 08:20:23;;;;;;;;;;;;;;;30.80;43.72;95569.13;5124845;28;1220;-55
2023/08/21 08:22:49;;;;;;;;;;;;;;;30.79;44.19;95562.78;5134468;28;1028;-56
2023/08/21 08:25:15;;;;;;;;;;;;;;;30.84;47.27;95557.22;5134026;28;1118;-56
2023/08/21 08:27:41;;;;;;;;;;;;;;;30.84;44.08;95565.50;5118424;28;3016;-56
2023/08/21 08:30:08;;;;;;;;;;;;;;;30.89;43.87;95562.75;5113813;28;984;-56
2023/08/21 08:32:34;;;;;;;;;;;;;;;30.98;45.35;95553.91;5113488;28;1107;-56
2023/08/21 08:35:00;;;;;;;;;;;;;;;31.06;42.58;95567.16;5113521;28;1040;-56
2023/08/21 08:37:26;;;;;;;;;;;;;;;31.20;43.97;95562.66;5113355;28;1886;-56
2023/08/21 08:39:52;;;;;;;;;;;;;;;31.37;43.68;95562.31;5128211;28;2406;-56
2023/08/21 08:42:18;;;;;;;;;;;;;;;31.48;42.79;95557.63;5133923;28;1027;-55
2023/08/21 08:44:44;;;;;;;;;;;;;;;31.56;44.34;95548.72;5134055;28;1084;-56
2023/08/21 08:47:11;;;;;;;;;;;;;;;31.49;42.39;95551.81;5132854;28;2478;-56
2023/08/21 08:49:37;;;;;;;;;;;;;;;31.57;42.50;95549.53;5133849;28;1284;-56
2023/08/21 08:52:04;;;;;;;;;;;;;;;31.67;43.06;95544.78;5133916;28;969;-56
2023/08/21 08:54:30;;;;;;;;;;;;;;;31.70;40.74;95549.75;5133780;28;925;-56
2023/08/21 08:56:57;;;;;;;;;;;;;;;31.62;40.95;95549.50;5133787;28;1980;-56
2023/08/21 08:59:23;;;;;;;;;;;;;;;31.65;40.83;95543.44;5133727;28;1052;-55
2023/08/21 09:01:49;;;;;;;;;;;;;;;31.82;43.03;95545.81;5134121;28;960;-56
2023/08/21 09:04:15;;;;;;;;;;;;;;;31.87;40.27;95538.31;5133692;27;1040;-56
2023/08/21 09:06:41;;;;;;;;;;;;;;;31.98;42.69;95532.69;5137763;27;969;-58
2023/08/21 09:09:08;;;;;;;;;;;;;;;32.10;40.32;95545.09;5137760;27;1040;-57
2023/08/21 09:11:34;;;;;;;;;;;;;;;32.15;40.49;95535.09;5137421;27;1040;-57
2023/08/21 09:14:00;;;;;;;;;;;;;;;32.26;41.37;95534.72;5137730;27;1118;-57
2023/08/21 09:16:26;;;;;;;;;;;;;;;32.15;38.68;95535.09;5135918;27;2493;-57
2023/08/21 09:18:53;;;;;;;;;;;;;;;32.31;39.94;95531.09;5135828;27;2639;-57
2023/08/21 09:21:20;;;;;;;;;;;;;;;32.26;39.16;95528.34;5137399;27;1169;-56
2023/08/21 09:23:47;;;;;;;;;;;;;;;32.30;42.41;95521.94;5134102;27;1465;-56
2023/08/21 09:26:22;;;;;;;;;;;;;;;32.32;40.99;95521.66;5118198;27;1232;-56
2023/08/21 09:28:49;;;;;;;;;;;;;;;32.27;39.04;95524.47;5116559;28;1022;-57
2023/08/21 09:31:16;;;;;;;;;;;;;;;32.37;39.41;95518.84;5098341;28;1004;-56
2023/08/21 09:33:42;;;;;;;;;;;;;;;32.42;38.91;95521.56;5116331;28;1008;-56
2023/08/21 09:36:24;;;;;;;;;;;;;;;32.41;37.59;95517.16;5100717;28;1906;-56
2023/08/21 09:38:51;;;;;;;;;;;;;;;32.36;38.92;95510.84;5116568;28;1016;-57
2023/08/21 09:41:19;;;;;;;;;;;;;;;32.30;38.47;95519.16;5116449;28;1051;-57
2023/08/21 09:43:45;;;;;;;;;;;;;;;32.35;39.17;95511.97;5116240;28;1052;-56
2023/08/21 09:46:14;;;;;;;;;;;;;;;32.34;40.28;95504.78;5115882;28;1164;-56
2023/08/21 09:48:41;;;;;;;;;;;;;;;32.33;39.60;95505.88;5116371;28;1007;-56
2023/08/21 09:51:07;;;;;;;;;;;;;;;32.43;38.21;95508.56;5116049;28;1102;-56
2023/08/21 09:53:33;;;;;;;;;;;;;;;32.46;38.18;95499.66;5116088;28;1048;-56
2023/08/21 09:56:03;;;;;;;;;;;;;;;32.63;39.68;95493.69;5115966;28;1910;-55
2023/08/21 09:58:29;;;;;;;;;;;;;;;32.67;36.52;95505.88;5116124;28;981;-56
2023/08/21 10:00:59;;;;;;;;;;;;;;;32.51;37.54;95496.84;5115871;28;962;-57
2023/08/21 10:03:25;;;;;;;;;;;;;;;32.53;36.68;95500.16;5116048;28;1000;-56
2023/08/21 10:05:53;;;;;;;;;;;;;;;32.62;37.63;95497.59;5115762;28;1027;-56
2023/08/21 10:08:23;;;;;;;;;;;;;;;32.63;36.14;95494.56;5097590;28;1095;-56
2023/08/21 10:10:49;;;;;;;;;;;;;;;32.74;37.57;95488.88;5115677;28;1020;-56
2023/08/21 10:13:16;;;;;;;;;;;;;;;32.83;38.77;95481.59;5133197;27;2958;-57
2023/08/21 10:15:42;;;;;;;;;;;;;;;32.82;35.52;95488.25;5135317;27;1901;-56
2023/08/21 10:18:18;;;;;;;;;;;;;;;32.93;38.42;95483.41;5135983;27;1248;-56
2023/08/21 10:20:45;;;;;;;;;;;;;;;32.91;36.55;95482.88;5136144;27;1181;-56
2023/08/21 10:23:23;;;;;;;;;;;;;;;32.92;37.84;95481.78;5135934;27;1043;-56
2023/08/21 10:25:53;;;;;;;;;;;;;;;32.88;38.11;95473.22;5135777;27;1035;-56
2023/08/21 10:28:19;;;;;;;;;;;;;;;32.88;37.88;95474.06;5135870;27;1095;-56
2023/08/21 10:30:45;;;;;;;;;;;;;;;32.86;36.74;95484.59;5135328;27;2253;-56
2023/08/21 10:33:11;;;;;;;;;;;;;;;32.91;38.13;95469.03;5134872;27;2863;-56
2023/08/21 10:35:37;;;;;;;;;;;;;;;33.06;37.46;95460.53;5135581;27;1897;-55
2023/08/21 10:38:11;;;;;;;;;;;;;;;33.09;37.88;95459.97;5135629;27;1056;-57
2023/08/21 10:40:37;;;;;;;;;;;;;;;33.10;38.21;95452.47;5135475;27;1119;-56
2023/08/21 10:43:04;;;;;;;;;;;;;;;33.13;36.16;95455.50;5136116;27;1039;-56
2023/08/21 10:45:30;;;;;;;;;;;;;;;33.07;36.64;95454.72;5135397;27;1313;-56
2023/08/21 10:47:59;;;;;;;;;;;;;;;33.02;37.11;95454.75;5135401;27;1066;-55
2023/08/21 10:50:26;;;;;;;;;;;;;;;33.05;36.62;95447.81;5135566;27;1125;-56
2023/08/21 10:52:53;;;;;;;;;;;;;;;33.17;36.71;95447.41;5135391;27;1059;-56
2023/08/21 10:55:19;;;;;;;;;;;;;;;33.25;36.66;95446.75;5135057;27;1910;-56
2023/08/21 10:57:48;;;;;;;;;;;;;;;33.16;36.88;95435.53;5135548;27;1059;-56
2023/08/21 11:00:16;;;;;;;;;;;;;;;33.18;36.89;95436.03;5135405;27;969;-56
2023/08/21 11:02:43;;;;;;;;;;;;;;;33.26;36.42;95445.63;5135181;27;1033;-56
2023/08/21 11:05:10;;;;;;;;;;;;;;;33.29;37.32;95441.44;5135193;27;1047;-57
2023/08/21 11:07:37;;;;;;;;;;;;;;;33.42;37.63;95435.13;5133807;27;2514;-55
2023/08/21 11:10:05;;;;;;;;;;;;;;;33.49;37.12;95432.81;5135274;27;1003;-56
2023/08/21 11:12:31;;;;;;;;;;;;;;;33.50;37.00;95433.63;5135128;27;975;-55
2023/08/21 11:14:57;;;;;;;;;;;;;;;33.52;37.65;95429.44;5135059;27;1011;-56
2023/08/21 11:17:25;;;;;;;;;;;;;;;33.43;36.33;95434.84;5133431;27;2771;-57
2023/08/21 11:19:51;;;;;;;;;;;;;;;33.35;36.13;95432.75;5121085;27;1228;-56
2023/08/21 11:22:17;;;;;;;;;;;;;;;33.22;36.20;95437.09;5134951;27;1190;-56
2023/08/21 11:24:45;;;;;;;;;;;;;;;33.23;35.38;95429.59;5135067;27;983;-56
2023/08/21 11:27:12;;;;;;;;;;;;;;;33.21;35.59;95429.88;5134357;27;1040;-57
2023/08/21 11:29:42;;;;;;;;;;;;;;;33.23;36.50;95427.63;5133593;27;2509;-56
2023/08/21 11:32:21;;;;;;;;;;;;;;;33.38;35.76;95421.06;5133545;27;2506;-56
2023/08/21 11:34:52;;;;;;;;;;;;;;;33.51;36.67;95424.22;5134877;27;1010;-56
2023/08/21 11:37:19;;;;;;;;;;;;;;;33.57;34.97;95421.03;5134704;27;1990;-56
2023/08/21 11:39:47;;;;;;;;;;;;;;;33.58;35.34;95416.31;5134821;27;1048;-56
2023/08/21 11:42:13;;;;;;;;;;;;;;;33.57;36.00;95406.38;5134748;27;1059;-57
2023/08/21 11:44:40;;;;;;;;;;;;;;;33.53;35.58;95413.66;5134349;27;1221;-57
2023/08/21 11:47:06;;;;;;;;;;;;;;;33.27;35.65;95402.94;5132984;27;2468;-56
2023/08/21 11:49:36;;;;;;;;;;;;;;;33.25;35.00;95407.94;5134254;27;1191;-56
2023/08/21 11:52:02;;;;;;;;;;;;;;;33.33;35.62;95400.91;5134646;27;1023;-56
2023/08/21 11:54:32;;;;;;;;;;;;;;;33.39;34.38;95399.69;5134516;27;1048;-56
2023/08/21 11:56:58;;;;;;;;;;;;;;;33.33;34.56;95400.91;5128876;27;2491;-56
2023/08/21 11:59:24;;;;;;;;;;;;;;;33.28;33.67;95398.22;5118015;27;2549;-56
2023/08/21 12:01:50;;;;;;;;;;;;;;;33.23;34.61;95393.56;5134367;28;1036;-56
2023/08/21 12:04:17;;;;;;;;;;;;;;;33.17;35.06;95380.94;5134081;28;1063;-56
2023/08/21 12:06:44;;;;;;;;;;;;;;;33.29;35.31;95384.06;5134510;28;977;-57
2023/08/21 12:09:10;;;;;;;;;;;;;;;33.27;35.80;95372.47;5134489;28;991;-56
2023/08/21 12:11:38;;;;;;;;;;;;;;;33.38;35.66;95382.25;5134482;28;960;-56
2023/08/21 12:14:04;;;;;;;;;;;;;;;33.28;35.00;95381.59;5132793;28;2560;-56
2023/08/21 12:16:30;;;;;;;;;;;;;;;33.39;33.80;95381.16;5134069;28;1941;-56
2023/08/21 12:18:57;;;;;;;;;;;;;;;33.50;33.01;95387.34;5132810;28;2477;-56
2023/08/21 12:21:23;;;;;;;;;;;;;;;33.59;32.09;95385.53;5132684;28;2494;-56
2023/08/21 12:23:49;;;;;;;;;;;;;;;33.63;32.07;95381.06;5134300;28;969;-56
2023/08/21 12:26:20;;;;;;;;;;;;;;;33.56;31.33;95385.31;5132798;28;2540;-56
2023/08/21 12:28:47;;;;;;;;;;;;;;;33.56;31.91;95385.31;5132880;28;2525;-56
2023/08/21 12:31:13;;;;;;;;;;;;;;;33.48;32.86;95380.47;5134130;28;1063;-56
2023/08/21 12:33:39;;;;;;;;;;;;;;;33.34;31.79;95397.84;5133957;28;1048;-55
2023/08/21 12:36:05;;;;;;;;;;;;;;;33.34;31.51;95392.31;5134061;28;1918;-56
2023/08/21 12:38:31;;;;;;;;;;;;;;;33.34;31.89;95385.94;5134411;27;1019;-56
2023/08/21 12:40:57;;;;;;;;;;;;;;;33.36;31.35;95389.25;5138170;27;1031;-57
2023/08/21 12:43:23;;;;;;;;;;;;;;;33.34;32.10;95388.72;5137943;27;977;-57
2023/08/21 12:45:49;;;;;;;;;;;;;;;33.31;31.93;95370.72;5135673;27;2597;-56
2023/08/21 12:48:15;;;;;;;;;;;;;;;33.25;31.44;95385.78;5117117;28;1040;-56
2023/08/21 12:50:43;;;;;;;;;;;;;;;33.28;31.91;95368.56;5117502;28;958;-56
2023/08/21 12:53:09;;;;;;;;;;;;;;;33.31;33.00;95367.16;5117370;28;1059;-56